Aérodrome :
LOGIN :

S'inscrire | Disclaimer

   EN    FR    IT 

 










Légende :    VFR   VFR Marginal   IFR   IFR Intensif   IFR Très Intensif
Visi : 
Plafond : 
>= 8 km
>= 3000ft
5 à 8 km
1000 à 3000 ft
1500m à 5 km
500 à 1000 ft
800 à 1500m
200 à 500 ft
< 800m
< 200 ft
Symboles :   Orages  Brouillard  Fortes neiges  Fortes précipitations  Vent > 20 kt
SIGMETs :   Divers  Orages  Givrage  Turbulence  Onde Orograph.  Cendres Volcan.







- Altitude de l'aérodrome : 287 ft
- Voir les cartes d'approche


LFRL - Lanveoc Poulmic

DERNIER METAR :
  • 251930Z AUTO 28011KT 250V310 9999 SCT018 SCT023 10/07 Q1021 TEMPO 28015G25KT 4000 SHRA

METARs EXPIRÉS :
  • 251830Z AUTO 29015KT 9999 FEW022 11/06 Q1021 TEMPO 28015G25KT 4000 SHRA
  • 251800Z AUTO 28016KT 9999 SCT022 SCT028 12/07 Q1020 TEMPO 28015G25KT 4000 SHRA
  • 251730Z AUTO 28014KT 9999 SCT022 BKN028 12/07 Q1021 TEMPO 28015G25KT 4000 SHRA
  • 251700Z AUTO 29015KT 9999 FEW023 SCT028 13/07 Q1021 TEMPO 28015G25KT 4000 SHRA

TAF TAF LFRL
Valide du 25 à 15h jusqu'au 26 à 00h UTC


251400Z 2515/2524 28015KT 9999 BKN020
PROB30
TEMPO 2515/2521 28015G25KT 4000 SHRA
Pas de NOTAMs connus pour ce terrain.



MET'MAP, la Météo Aéronautique d'un coup d'oeil ! - Copyright ORBIFLY Décembre 2007 - Disclaimer

ORBIFLY MET'MAP TEAM :

Programmation & Développement : Alexandra Zaïnal
Conception & Développement : Baudouin d'Aumeries
Co-Programmation & Développement : Marc-Olivier Méhu
Soutien technique & logistique : Manuel Goepfert

Contact : metmap@orbifly.com




SOURCES & CREDITS :

   NOAA